createdAt,value
2022-11-30T00:00:55.639Z,58.13
2022-11-30T00:01:57.037Z,63.74
2022-11-30T00:02:56.247Z,70.14
2022-11-30T00:03:55.194Z,68.07
2022-11-30T00:04:55.928Z,61.99
2022-11-30T00:05:55.468Z,66.24
2022-11-30T00:06:55.117Z,67.90
2022-11-30T00:07:55.152Z,67.42
2022-11-30T00:08:55.114Z,57.90
2022-11-30T00:09:56.020Z,62.10
2022-11-30T00:10:55.121Z,61.39
2022-11-30T00:11:56.060Z,59.57
2022-11-30T00:12:56.454Z,65.89
2022-11-30T00:13:55.561Z,68.49
2022-11-30T00:14:55.957Z,60.85
2022-11-30T00:15:55.077Z,68.26
2022-11-30T00:16:55.156Z,58.97
2022-11-30T00:17:54.970Z,73.84
2022-11-30T00:18:55.877Z,62.15
2022-11-30T00:19:55.937Z,63.74
2022-11-30T00:20:55.005Z,65.84
2022-11-30T00:21:54.918Z,69.27
2022-11-30T00:22:54.946Z,59.88
2022-11-30T00:23:55.526Z,73.43
2022-11-30T00:24:55.526Z,68.53
2022-11-30T00:25:54.990Z,66.45
2022-11-30T00:26:55.536Z,70.43
2022-11-30T00:27:54.861Z,65.51
2022-11-30T00:28:56.438Z,67.09
2022-11-30T00:29:57.375Z,66.31
2022-11-30T00:30:55.635Z,64.58
2022-11-30T00:31:54.907Z,65.01
2022-11-30T00:32:54.803Z,63.03
2022-11-30T00:33:54.861Z,66.63
2022-11-30T00:34:55.529Z,54.06
2022-11-30T00:35:56.456Z,68.47
2022-11-30T00:36:54.759Z,69.31
2022-11-30T00:37:56.439Z,73.16
2022-11-30T00:38:56.371Z,66.94
2022-11-30T00:39:57.435Z,61.44
2022-11-30T00:40:55.451Z,64.27
2022-11-30T00:41:54.726Z,63.98
2022-11-30T00:42:55.992Z,64.43
2022-11-30T00:43:54.859Z,60.53
2022-11-30T00:44:54.694Z,65.25
2022-11-30T00:45:54.777Z,62.24
2022-11-30T00:46:55.585Z,62.22
2022-11-30T00:47:54.718Z,65.32
2022-11-30T00:48:54.652Z,59.92
2022-11-30T00:49:55.112Z,63.35
2022-11-30T00:50:55.418Z,59.93
2022-11-30T00:51:54.650Z,56.24
2022-11-30T00:52:54.624Z,63.84
2022-11-30T00:53:55.495Z,55.48
2022-11-30T00:54:56.419Z,57.35
2022-11-30T00:55:55.545Z,64.86
2022-11-30T00:56:54.526Z,67.47
2022-11-30T00:57:55.439Z,57.58
2022-11-30T00:58:59.404Z,62.96
2022-11-30T00:59:55.437Z,65.57
2022-11-30T01:00:55.443Z,59.02
2022-11-30T01:01:54.615Z,64.19
2022-11-30T01:02:55.491Z,60.88
2022-11-30T01:03:55.453Z,71.29
2022-11-30T01:04:54.456Z,65.23
2022-11-30T01:05:54.440Z,52.33
2022-11-30T01:06:54.545Z,60.61
2022-11-30T01:07:54.482Z,64.21
2022-11-30T01:08:56.959Z,55.80
2022-11-30T01:09:54.416Z,66.83
2022-11-30T01:10:55.033Z,65.24
2022-11-30T01:11:54.380Z,58.29
2022-11-30T01:12:55.408Z,63.63
2022-11-30T01:13:55.188Z,53.81
2022-11-30T01:14:54.437Z,58.24
2022-11-30T01:15:54.343Z,53.07
2022-11-30T01:16:56.448Z,56.51
2022-11-30T01:17:56.929Z,72.28
2022-11-30T01:18:56.012Z,60.94
2022-11-30T01:19:54.373Z,64.93
2022-11-30T01:20:54.313Z,53.89
2022-11-30T01:21:54.989Z,56.78
2022-11-30T01:22:54.248Z,69.77
2022-11-30T01:23:54.984Z,66.73
2022-11-30T01:24:57.412Z,60.74
2022-11-30T01:25:54.920Z,69.56
2022-11-30T01:26:54.921Z,56.18
2022-11-30T01:27:54.199Z,63.30
2022-11-30T01:28:54.178Z,60.28
2022-11-30T01:29:55.038Z,66.86
2022-11-30T01:30:55.963Z,63.65
2022-11-30T01:31:54.898Z,57.11
2022-11-30T01:32:55.026Z,68.42
2022-11-30T01:33:54.090Z,68.47
2022-11-30T01:34:54.982Z,57.19
2022-11-30T01:35:54.110Z,64.33
2022-11-30T01:36:54.561Z,64.38
2022-11-30T01:37:54.901Z,54.81
2022-11-30T01:38:54.093Z,64.82
2022-11-30T01:39:55.915Z,61.91
2022-11-30T01:40:55.021Z,59.35
2022-11-30T01:41:54.145Z,60.44
2022-11-30T01:42:54.043Z,57.29
2022-11-30T01:43:53.976Z,64.27
2022-11-30T01:44:54.006Z,64.48
2022-11-30T01:45:54.068Z,54.82
2022-11-30T01:46:54.013Z,69.43
2022-11-30T01:47:54.524Z,67.98
2022-11-30T01:48:54.862Z,56.26
2022-11-30T01:49:53.942Z,67.94
2022-11-30T01:50:54.508Z,61.08
2022-11-30T01:51:53.921Z,67.73
2022-11-30T01:52:53.925Z,70.03
2022-11-30T01:53:55.366Z,71.66
2022-11-30T01:54:54.918Z,63.14
2022-11-30T01:55:53.881Z,67.31
2022-11-30T01:56:53.887Z,54.71
2022-11-30T01:57:53.834Z,59.61
2022-11-30T01:58:53.831Z,64.85
2022-11-30T01:59:53.823Z,74.72
2022-11-30T02:00:53.846Z,69.94
2022-11-30T02:01:53.794Z,54.84
2022-11-30T02:02:53.826Z,64.19
2022-11-30T02:03:54.444Z,61.13
2022-11-30T02:04:53.810Z,50.53
2022-11-30T02:05:53.790Z,57.59
2022-11-30T02:06:53.743Z,69.37
2022-11-30T02:07:53.857Z,66.08
2022-11-30T02:08:54.403Z,67.69
2022-11-30T02:09:53.872Z,68.25
2022-11-30T02:10:54.455Z,66.68
2022-11-30T02:11:54.987Z,68.79
2022-11-30T02:12:53.718Z,65.26
2022-11-30T02:13:54.486Z,61.10
2022-11-30T02:14:55.515Z,63.78
2022-11-30T02:15:54.533Z,51.44
2022-11-30T02:16:55.402Z,69.04
2022-11-30T02:17:53.767Z,64.19
2022-11-30T02:18:54.646Z,67.94
2022-11-30T02:19:53.764Z,61.69
2022-11-30T02:20:54.456Z,65.66
2022-11-30T02:21:54.541Z,56.61
2022-11-30T02:22:53.556Z,72.03
2022-11-30T02:23:55.415Z,64.11
2022-11-30T02:24:53.591Z,66.99
2022-11-30T02:25:53.587Z,66.29
2022-11-30T02:26:53.521Z,68.05
2022-11-30T02:27:54.943Z,67.71
2022-11-30T02:28:55.015Z,64.27
2022-11-30T02:29:53.484Z,67.76
2022-11-30T02:30:54.576Z,68.03
2022-11-30T02:31:56.422Z,60.90
2022-11-30T02:32:53.980Z,60.68
2022-11-30T02:33:53.477Z,67.47
2022-11-30T02:34:53.520Z,64.25
2022-11-30T02:35:55.300Z,68.09
2022-11-30T02:36:54.424Z,50.62
2022-11-30T02:37:54.016Z,58.92
2022-11-30T02:38:53.496Z,71.42
2022-11-30T02:39:53.468Z,61.25
2022-11-30T02:40:54.396Z,66.11
2022-11-30T02:41:53.893Z,67.01
2022-11-30T02:42:54.913Z,65.78
2022-11-30T02:43:53.942Z,70.06
2022-11-30T02:44:53.951Z,69.76
2022-11-30T02:45:54.047Z,64.74
2022-11-30T02:46:53.317Z,56.21
2022-11-30T02:47:57.438Z,63.99
2022-11-30T02:48:53.382Z,53.65
2022-11-30T02:49:53.891Z,66.81
2022-11-30T02:50:53.937Z,63.39
2022-11-30T02:51:53.278Z,65.57
2022-11-30T02:52:54.089Z,56.70
2022-11-30T02:53:54.116Z,57.81
2022-11-30T02:54:53.201Z,67.03
2022-11-30T02:55:54.005Z,60.34
2022-11-30T02:56:54.199Z,62.71
2022-11-30T02:57:53.205Z,68.23
2022-11-30T02:58:53.194Z,58.52
2022-11-30T02:59:54.003Z,71.82
2022-11-30T03:00:53.885Z,64.94
2022-11-30T03:01:54.077Z,68.44
2022-11-30T03:02:53.481Z,66.64
2022-11-30T03:03:53.130Z,66.87
2022-11-30T03:04:53.885Z,54.86
2022-11-30T03:05:53.899Z,67.19
2022-11-30T03:06:53.887Z,70.00
2022-11-30T03:07:53.257Z,63.64
2022-11-30T03:08:53.897Z,57.41
2022-11-30T03:09:54.915Z,67.30
2022-11-30T03:10:54.238Z,67.29
2022-11-30T03:11:53.885Z,58.84
2022-11-30T03:12:53.895Z,67.16
2022-11-30T03:13:53.007Z,53.79
2022-11-30T03:14:53.054Z,63.31
2022-11-30T03:15:53.227Z,60.39
2022-11-30T03:16:53.886Z,59.74
2022-11-30T03:17:52.987Z,66.65
2022-11-30T03:18:52.990Z,69.54
2022-11-30T03:19:53.525Z,65.97
2022-11-30T03:20:54.939Z,59.00
2022-11-30T03:21:53.894Z,68.88
2022-11-30T03:22:53.897Z,71.87
2022-11-30T03:23:53.564Z,67.28
2022-11-30T03:24:54.397Z,68.97
2022-11-30T03:25:53.888Z,69.02
2022-11-30T03:26:52.920Z,66.77
2022-11-30T03:27:52.956Z,69.19
2022-11-30T03:28:52.971Z,66.00
2022-11-30T03:29:56.532Z,65.38
2022-11-30T03:30:54.103Z,63.70
2022-11-30T03:31:52.863Z,66.46
2022-11-30T03:32:54.399Z,72.40
2022-11-30T03:33:53.899Z,65.75
2022-11-30T03:34:53.429Z,68.47
2022-11-30T03:35:52.787Z,67.39
2022-11-30T03:36:54.068Z,69.43
2022-11-30T03:37:53.492Z,70.72
2022-11-30T03:38:53.454Z,68.31
2022-11-30T03:39:58.081Z,70.67
2022-11-30T03:40:54.600Z,68.26
2022-11-30T03:41:52.731Z,69.55
2022-11-30T03:42:52.813Z,69.03
2022-11-30T03:43:52.748Z,68.89
2022-11-30T03:44:53.081Z,67.10
2022-11-30T03:45:53.448Z,70.61
2022-11-30T03:46:52.698Z,72.94
2022-11-30T03:47:53.429Z,68.01
2022-11-30T03:48:52.644Z,65.36
2022-11-30T03:49:52.685Z,71.17
2022-11-30T03:50:53.427Z,70.26
2022-11-30T03:51:52.605Z,69.07
2022-11-30T03:52:53.435Z,65.58
2022-11-30T03:53:52.617Z,69.85
2022-11-30T03:54:52.609Z,65.57
2022-11-30T03:55:53.502Z,69.56
2022-11-30T03:56:55.411Z,68.79
2022-11-30T03:57:53.545Z,71.09
2022-11-30T03:58:53.359Z,67.82
2022-11-30T03:59:52.557Z,66.95
2022-11-30T04:00:52.511Z,72.13
2022-11-30T04:01:53.043Z,71.07
2022-11-30T04:02:53.972Z,68.88
2022-11-30T04:03:53.925Z,65.31
2022-11-30T04:04:52.498Z,71.42
2022-11-30T04:05:53.426Z,70.23
2022-11-30T04:06:52.554Z,71.18
2022-11-30T04:07:53.143Z,70.51
2022-11-30T04:08:52.389Z,73.65
2022-11-30T04:09:53.392Z,72.20
2022-11-30T04:10:54.170Z,71.52
2022-11-30T04:11:52.898Z,72.03
2022-11-30T04:12:52.798Z,69.26
2022-11-30T04:13:52.376Z,71.64
2022-11-30T04:14:52.330Z,74.28
2022-11-30T04:15:52.958Z,71.92
2022-11-30T04:16:53.027Z,73.76
2022-11-30T04:17:52.910Z,71.35
2022-11-30T04:18:52.495Z,73.04
2022-11-30T04:19:52.303Z,73.69
2022-11-30T04:20:52.941Z,72.86
2022-11-30T04:21:52.593Z,73.77
2022-11-30T04:22:52.297Z,75.25
2022-11-30T04:23:53.353Z,74.67
2022-11-30T04:24:52.859Z,73.52
2022-11-30T04:25:54.395Z,76.41
2022-11-30T04:26:52.257Z,74.63
2022-11-30T04:27:52.337Z,73.15
2022-11-30T04:28:52.953Z,74.93
2022-11-30T04:29:52.241Z,74.69
2022-11-30T04:30:52.891Z,75.67
2022-11-30T04:31:54.041Z,74.04
2022-11-30T04:32:52.184Z,76.08
2022-11-30T04:33:52.140Z,74.55
2022-11-30T04:34:53.021Z,75.63
2022-11-30T04:35:52.380Z,72.92
2022-11-30T04:36:56.054Z,75.40
2022-11-30T04:37:53.133Z,74.50
2022-11-30T04:38:52.925Z,76.95
2022-11-30T04:39:52.065Z,76.14
2022-11-30T04:40:52.895Z,76.30
2022-11-30T04:41:52.066Z,76.22
2022-11-30T04:42:52.938Z,75.68
2022-11-30T04:43:53.422Z,75.97
2022-11-30T04:44:52.939Z,76.55
2022-11-30T04:45:52.031Z,76.67
2022-11-30T04:46:52.190Z,73.85
2022-11-30T04:47:51.979Z,76.50
2022-11-30T04:48:52.049Z,73.95
2022-11-30T04:49:52.032Z,76.17
2022-11-30T04:50:51.980Z,77.56
2022-11-30T04:51:51.991Z,77.35
2022-11-30T04:52:52.927Z,76.91
2022-11-30T04:53:51.923Z,76.69
2022-11-30T04:54:52.587Z,75.52
2022-11-30T04:55:51.943Z,76.60
2022-11-30T04:56:51.975Z,76.47
2022-11-30T04:57:51.861Z,75.72
2022-11-30T04:58:51.892Z,76.33
2022-11-30T04:59:51.888Z,76.42
2022-11-30T05:00:53.409Z,74.81
2022-11-30T05:01:52.480Z,75.16
2022-11-30T05:02:53.100Z,75.62
2022-11-30T05:03:52.842Z,76.16
2022-11-30T05:04:52.637Z,76.11
2022-11-30T05:05:51.876Z,73.65
2022-11-30T05:06:51.808Z,75.60
2022-11-30T05:07:54.131Z,76.21
2022-11-30T05:08:51.814Z,77.66
2022-11-30T05:09:55.616Z,77.80
2022-11-30T05:10:53.231Z,75.64
2022-11-30T05:11:53.440Z,75.88
2022-11-30T05:12:52.349Z,76.39
2022-11-30T05:13:51.759Z,78.07
2022-11-30T05:14:52.608Z,76.97
2022-11-30T05:15:52.391Z,76.63
2022-11-30T05:16:52.884Z,77.39
2022-11-30T05:17:56.351Z,76.06
2022-11-30T05:18:51.878Z,77.82
2022-11-30T05:19:53.072Z,75.96
2022-11-30T05:20:52.345Z,75.35
2022-11-30T05:21:52.125Z,76.90
2022-11-30T05:22:52.396Z,75.22
2022-11-30T05:23:53.189Z,77.63
2022-11-30T05:24:52.474Z,77.88
2022-11-30T05:25:51.541Z,77.01
2022-11-30T05:26:52.453Z,76.40
2022-11-30T05:27:51.585Z,78.10
2022-11-30T05:28:51.582Z,76.35
2022-11-30T05:29:51.694Z,77.38
2022-11-30T05:30:51.652Z,75.94
2022-11-30T05:31:51.556Z,77.03
2022-11-30T05:32:52.037Z,77.36
2022-11-30T05:33:52.502Z,76.52
2022-11-30T05:34:54.274Z,78.84
2022-11-30T05:35:52.084Z,76.33
2022-11-30T05:36:53.917Z,78.82
2022-11-30T05:37:52.900Z,79.71
2022-11-30T05:38:51.997Z,77.19
2022-11-30T05:39:52.918Z,78.96
2022-11-30T05:40:51.473Z,79.05
2022-11-30T05:41:52.346Z,78.98
2022-11-30T05:42:51.910Z,78.71
2022-11-30T05:43:51.336Z,78.44
2022-11-30T05:44:51.390Z,77.71
2022-11-30T05:45:51.370Z,79.08
2022-11-30T05:46:52.356Z,78.58
2022-11-30T05:47:52.917Z,77.93
2022-11-30T05:48:51.406Z,79.03
2022-11-30T05:49:51.347Z,78.15
2022-11-30T05:50:51.422Z,77.18
2022-11-30T05:51:51.283Z,77.85
2022-11-30T05:52:51.404Z,79.71
2022-11-30T05:53:51.376Z,79.46
2022-11-30T05:54:58.860Z,78.22
2022-11-30T05:55:53.838Z,76.88
2022-11-30T05:56:54.938Z,80.05
2022-11-30T05:57:54.007Z,78.91
2022-11-30T05:58:51.243Z,75.86
2022-11-30T05:59:51.230Z,77.46
2022-11-30T06:00:51.222Z,75.66
2022-11-30T06:01:51.355Z,76.39
2022-11-30T06:02:51.295Z,78.74
2022-11-30T06:03:51.996Z,78.75
2022-11-30T06:04:52.530Z,76.07
2022-11-30T06:05:51.195Z,78.28
2022-11-30T06:06:51.186Z,76.09
2022-11-30T06:07:51.953Z,75.27
2022-11-30T06:08:52.194Z,76.23
2022-11-30T06:09:51.157Z,78.77
2022-11-30T06:10:51.982Z,78.88
2022-11-30T06:11:51.162Z,78.54
2022-11-30T06:12:51.030Z,78.06
2022-11-30T06:13:51.838Z,76.25
2022-11-30T06:14:54.438Z,78.91
2022-11-30T06:15:51.116Z,78.51
2022-11-30T06:16:51.979Z,78.77
2022-11-30T06:17:52.559Z,78.71
2022-11-30T06:18:51.931Z,79.31
2022-11-30T06:19:51.503Z,79.52
2022-11-30T06:20:51.710Z,80.09
2022-11-30T06:22:23.899Z,77.97
2022-11-30T06:22:54.042Z,77.59
2022-11-30T06:23:51.997Z,78.88
2022-11-30T06:24:52.015Z,78.25
2022-11-30T06:25:51.904Z,79.04
2022-11-30T06:26:50.995Z,79.52
2022-11-30T06:27:50.943Z,78.28
2022-11-30T06:28:50.963Z,77.10
2022-11-30T06:29:51.131Z,78.37
2022-11-30T06:30:51.904Z,78.83
2022-11-30T06:31:51.472Z,79.13
2022-11-30T06:32:51.080Z,78.24
2022-11-30T06:33:50.903Z,77.71
2022-11-30T06:34:51.655Z,78.66
2022-11-30T06:35:50.876Z,77.57
2022-11-30T06:36:50.850Z,79.10
2022-11-30T06:37:51.868Z,78.76
2022-11-30T06:38:52.184Z,79.11
2022-11-30T06:42:54.713Z,77.77
2022-11-30T06:43:54.688Z,78.96
2022-11-30T06:44:55.928Z,78.72
2022-11-30T06:45:55.313Z,78.21
2022-11-30T06:46:54.665Z,79.31
2022-11-30T06:47:54.686Z,77.89
2022-11-30T06:48:54.719Z,77.99
2022-11-30T06:49:54.600Z,77.39
2022-11-30T06:50:54.585Z,77.08
2022-11-30T06:51:54.582Z,78.74
2022-11-30T06:52:54.725Z,76.24
2022-11-30T06:53:54.582Z,77.32
2022-11-30T06:54:54.608Z,78.45
2022-11-30T06:55:54.583Z,78.44
2022-11-30T06:56:54.514Z,77.46
2022-11-30T06:57:54.513Z,75.92
2022-11-30T06:58:54.533Z,77.92
2022-11-30T06:59:56.189Z,77.75
2022-11-30T07:00:54.593Z,75.10
2022-11-30T07:01:54.534Z,78.69
2022-11-30T07:02:55.218Z,77.03
2022-11-30T07:03:54.509Z,77.20
2022-11-30T07:04:54.479Z,76.30
2022-11-30T07:05:54.436Z,76.28
2022-11-30T07:06:54.501Z,76.09
2022-11-30T07:07:54.450Z,75.80
2022-11-30T07:09:26.366Z,77.21
2022-11-30T07:09:54.433Z,77.29
2022-11-30T07:10:54.369Z,76.90
2022-11-30T07:11:54.366Z,75.48
2022-11-30T07:12:54.354Z,75.71
2022-11-30T07:13:55.382Z,76.95
2022-11-30T07:14:54.350Z,75.48
2022-11-30T07:15:54.419Z,75.85
2022-11-30T07:16:54.425Z,77.95
2022-11-30T07:17:54.488Z,75.87
2022-11-30T07:18:54.318Z,77.26
2022-11-30T07:19:54.358Z,76.68
2022-11-30T07:20:54.261Z,75.68
2022-11-30T07:21:54.314Z,75.91
2022-11-30T07:22:54.321Z,75.40
2022-11-30T07:23:56.810Z,75.30
2022-11-30T07:24:55.209Z,74.42
2022-11-30T07:25:54.289Z,76.63
2022-11-30T07:26:54.814Z,77.01
2022-11-30T07:27:54.563Z,77.27
2022-11-30T07:28:54.275Z,75.56
2022-11-30T07:29:54.253Z,77.63
2022-11-30T07:30:54.246Z,76.06
2022-11-30T07:31:54.426Z,75.52
2022-11-30T07:32:54.282Z,77.03
2022-11-30T07:33:54.183Z,75.69
2022-11-30T07:34:54.111Z,77.14
2022-11-30T07:35:54.079Z,77.33
2022-11-30T07:36:54.106Z,77.20
2022-11-30T07:37:54.116Z,76.79
2022-11-30T07:38:54.183Z,76.15
2022-11-30T07:39:54.679Z,76.74
2022-11-30T07:40:54.047Z,74.68
2022-11-30T07:41:54.046Z,76.14
2022-11-30T07:42:54.822Z,73.97
2022-11-30T07:43:54.038Z,76.61
2022-11-30T07:44:58.608Z,75.19
2022-11-30T07:45:55.074Z,75.98
2022-11-30T07:46:54.022Z,77.80
2022-11-30T07:47:54.007Z,76.56
2022-11-30T07:48:53.990Z,74.89
2022-11-30T07:49:53.948Z,75.57
2022-11-30T07:50:53.959Z,73.14
2022-11-30T07:51:54.008Z,75.09
2022-11-30T07:52:53.904Z,74.22
2022-11-30T07:53:53.919Z,72.96
2022-11-30T07:54:53.896Z,74.79
2022-11-30T07:55:57.033Z,72.12
2022-11-30T07:56:54.924Z,76.81
2022-11-30T07:57:53.912Z,75.47
2022-11-30T07:58:53.909Z,77.47
2022-11-30T07:59:53.916Z,75.68
2022-11-30T08:00:53.990Z,76.19
2022-11-30T08:01:53.965Z,75.08
2022-11-30T08:02:53.791Z,76.76
2022-11-30T08:03:54.043Z,73.44
2022-11-30T08:04:53.879Z,76.93
2022-11-30T08:05:53.752Z,74.78
2022-11-30T08:06:53.796Z,74.94
2022-11-30T08:07:53.847Z,76.14
2022-11-30T08:08:53.744Z,74.77
2022-11-30T08:09:53.732Z,75.30
2022-11-30T08:10:54.725Z,75.51
2022-11-30T08:11:53.718Z,74.78
2022-11-30T08:12:53.691Z,74.08
2022-11-30T08:13:53.698Z,75.31
2022-11-30T08:15:18.670Z,75.45
2022-11-30T08:15:55.645Z,73.61
2022-11-30T08:16:53.698Z,74.24
2022-11-30T08:17:57.185Z,75.05
2022-11-30T08:18:53.696Z,75.62
2022-11-30T08:19:54.311Z,75.51
2022-11-30T08:20:53.693Z,74.71
2022-11-30T08:21:53.589Z,74.37
2022-11-30T08:22:53.592Z,76.86
2022-11-30T08:23:53.652Z,76.13
2022-11-30T08:24:53.564Z,76.57
2022-11-30T08:25:53.528Z,76.56
2022-11-30T08:26:53.537Z,75.74
2022-11-30T08:27:53.508Z,77.41
2022-11-30T08:28:53.513Z,75.96
2022-11-30T08:29:53.570Z,74.50
2022-11-30T08:30:53.530Z,75.42
2022-11-30T08:31:53.466Z,75.85
2022-11-30T08:32:53.506Z,74.13
2022-11-30T08:33:53.454Z,76.58
2022-11-30T08:34:53.458Z,75.82
2022-11-30T08:35:53.447Z,77.44
2022-11-30T08:36:53.401Z,75.71
2022-11-30T08:37:53.466Z,76.91
2022-11-30T08:38:53.398Z,76.75
2022-11-30T08:39:53.422Z,75.71
2022-11-30T08:40:53.378Z,73.46
2022-11-30T08:41:53.345Z,76.84
2022-11-30T08:42:53.333Z,75.30
2022-11-30T08:43:53.370Z,75.40
2022-11-30T08:44:53.314Z,76.38
2022-11-30T08:45:54.486Z,76.55
2022-11-30T08:46:54.350Z,75.03
2022-11-30T08:47:53.281Z,74.99
2022-11-30T08:49:02.382Z,74.92
2022-11-30T08:49:55.285Z,73.16
2022-11-30T08:50:53.294Z,77.87
2022-11-30T08:52:55.226Z,74.79
2022-11-30T08:53:53.291Z,74.98
2022-11-30T08:54:53.447Z,78.47
2022-11-30T08:55:53.198Z,76.97
2022-11-30T08:56:53.275Z,76.39
2022-11-30T08:57:53.330Z,77.36
2022-11-30T08:58:53.187Z,76.94
2022-11-30T08:59:53.172Z,73.51
2022-11-30T09:00:53.143Z,76.24
2022-11-30T09:01:53.248Z,76.46
2022-11-30T09:02:53.209Z,76.98
2022-11-30T09:03:53.125Z,75.24
2022-11-30T09:04:53.116Z,75.99
2022-11-30T09:05:53.157Z,76.53
2022-11-30T09:06:54.088Z,78.23
2022-11-30T09:07:53.379Z,75.16
2022-11-30T09:08:53.044Z,75.81
2022-11-30T09:09:53.060Z,77.61
2022-11-30T09:10:53.036Z,76.18
2022-11-30T09:11:53.011Z,77.57
2022-11-30T09:12:54.028Z,76.46
2022-11-30T09:13:53.020Z,77.34
2022-11-30T09:14:58.069Z,76.39
2022-11-30T09:15:54.039Z,73.77
2022-11-30T09:16:52.964Z,74.36
2022-11-30T09:17:52.981Z,77.15
2022-11-30T09:18:53.785Z,75.76
2022-11-30T09:19:52.935Z,76.76
2022-11-30T09:20:52.936Z,78.03
2022-11-30T09:21:53.600Z,75.49
2022-11-30T09:22:52.913Z,77.37
2022-11-30T09:23:52.924Z,76.90
2022-11-30T09:24:52.955Z,75.92
2022-11-30T09:25:52.900Z,77.09
2022-11-30T09:26:52.919Z,78.58
2022-11-30T09:28:25.261Z,75.93
2022-11-30T09:28:52.895Z,75.26
2022-11-30T09:29:52.870Z,76.34
2022-11-30T09:30:52.907Z,75.74
2022-11-30T09:31:52.838Z,77.21
2022-11-30T09:32:54.613Z,77.33
2022-11-30T09:33:52.813Z,78.78
2022-11-30T09:34:53.264Z,78.24
2022-11-30T09:35:52.841Z,76.42
2022-11-30T09:36:52.800Z,76.94
2022-11-30T09:37:52.793Z,76.70
2022-11-30T09:38:53.665Z,76.92
2022-11-30T09:39:52.736Z,76.62
2022-11-30T09:40:54.626Z,76.31
2022-11-30T09:41:52.722Z,72.86
2022-11-30T09:42:52.681Z,75.23
2022-11-30T09:43:52.709Z,76.97
2022-11-30T09:44:52.665Z,76.69
2022-11-30T09:45:52.681Z,76.11
2022-11-30T09:46:52.689Z,73.19
2022-11-30T09:47:52.622Z,77.79
2022-11-30T09:48:52.618Z,78.47
2022-11-30T09:49:52.609Z,77.45
2022-11-30T09:50:52.625Z,75.91
2022-11-30T09:51:52.682Z,74.76
2022-11-30T09:52:52.571Z,75.27
2022-11-30T09:53:52.584Z,77.21
2022-11-30T09:54:52.584Z,75.87
2022-11-30T09:55:52.564Z,75.37
2022-11-30T09:56:52.591Z,77.68
2022-11-30T09:57:52.564Z,75.51
2022-11-30T09:58:52.514Z,76.07
2022-11-30T09:59:52.533Z,76.88
2022-11-30T10:00:54.167Z,75.11
2022-11-30T10:01:56.970Z,75.52
2022-11-30T10:02:53.707Z,75.30
2022-11-30T10:03:52.468Z,75.85
2022-11-30T10:04:52.560Z,76.88
2022-11-30T10:05:52.600Z,74.71
2022-11-30T10:06:52.435Z,77.26
2022-11-30T10:07:52.527Z,77.01
2022-11-30T10:08:52.407Z,77.42
2022-11-30T10:10:09.394Z,75.08
2022-11-30T10:10:54.435Z,78.04
2022-11-30T10:11:53.228Z,75.83
2022-11-30T10:12:52.367Z,77.41
2022-11-30T10:13:52.363Z,77.18
2022-11-30T10:14:55.895Z,77.16
2022-11-30T10:15:53.380Z,77.95
2022-11-30T10:16:52.316Z,77.69
2022-11-30T10:17:53.168Z,77.33
2022-11-30T10:18:54.135Z,76.94
2022-11-30T10:19:52.287Z,76.77
2022-11-30T10:20:52.304Z,77.47
2022-11-30T10:21:52.280Z,76.76
2022-11-30T10:22:52.256Z,72.83
2022-11-30T10:23:52.305Z,75.48
2022-11-30T10:24:52.261Z,77.99
2022-11-30T10:25:52.239Z,77.38
2022-11-30T10:26:52.232Z,77.34
2022-11-30T10:27:52.205Z,76.09
2022-11-30T10:28:52.212Z,76.35
2022-11-30T10:29:52.180Z,72.81
2022-11-30T10:30:52.270Z,76.56
2022-11-30T10:31:52.195Z,75.73
2022-11-30T10:32:52.155Z,79.07
2022-11-30T10:33:52.789Z,75.85
2022-11-30T10:34:53.110Z,76.94
2022-11-30T10:35:52.185Z,76.23
2022-11-30T10:36:52.093Z,76.08
2022-11-30T10:37:52.163Z,76.38
2022-11-30T10:38:52.133Z,76.85
2022-11-30T10:39:52.069Z,77.53
2022-11-30T10:40:52.144Z,76.04
2022-11-30T10:41:52.365Z,77.36
2022-11-30T10:42:52.111Z,78.21
2022-11-30T10:43:52.033Z,76.01
2022-11-30T10:44:52.054Z,76.70
2022-11-30T10:45:52.820Z,76.52
2022-11-30T10:46:52.128Z,74.65
2022-11-30T10:47:52.025Z,73.77
2022-11-30T10:48:51.986Z,76.41
2022-11-30T10:49:51.970Z,76.09
2022-11-30T10:50:51.975Z,74.92
2022-11-30T10:51:51.975Z,77.69
2022-11-30T10:52:51.916Z,76.25
2022-11-30T10:53:51.974Z,75.71
2022-11-30T10:54:51.910Z,76.98
2022-11-30T10:55:51.934Z,77.07
2022-11-30T10:56:51.911Z,75.38
2022-11-30T10:57:51.874Z,76.60
2022-11-30T10:58:51.851Z,76.41
2022-11-30T10:59:51.849Z,76.74
2022-11-30T11:00:51.846Z,76.22
2022-11-30T11:01:52.419Z,75.49
2022-11-30T11:02:51.877Z,76.80
2022-11-30T11:03:51.870Z,77.30
2022-11-30T11:04:52.751Z,76.07
2022-11-30T11:05:51.867Z,75.66
2022-11-30T11:06:51.866Z,75.41
2022-11-30T11:07:51.865Z,74.12
2022-11-30T11:08:51.753Z,76.73
2022-11-30T11:09:51.742Z,75.94
2022-11-30T11:10:51.775Z,77.56
2022-11-30T11:11:51.718Z,78.50
2022-11-30T11:12:51.835Z,77.38
2022-11-30T11:13:52.746Z,78.15
2022-11-30T11:14:51.803Z,76.85
2022-11-30T11:15:51.728Z,76.56
2022-11-30T11:16:51.703Z,76.24
2022-11-30T11:17:51.786Z,75.81
2022-11-30T11:18:51.953Z,77.75
2022-11-30T11:19:52.630Z,75.96
2022-11-30T11:20:55.572Z,75.64
2022-11-30T11:21:52.630Z,73.83
2022-11-30T11:22:51.632Z,76.13
2022-11-30T11:23:51.670Z,75.13
2022-11-30T11:24:51.655Z,75.39
2022-11-30T11:25:51.631Z,74.23
2022-11-30T11:26:51.660Z,77.76
2022-11-30T11:27:51.567Z,76.65
2022-11-30T11:28:51.748Z,74.64
2022-11-30T11:29:51.559Z,75.98
2022-11-30T11:30:51.623Z,75.85
2022-11-30T11:31:51.551Z,76.65
2022-11-30T11:32:51.495Z,75.62
2022-11-30T11:33:51.567Z,76.52
2022-11-30T11:34:51.741Z,75.67
2022-11-30T11:35:51.571Z,75.47
2022-11-30T11:36:51.475Z,77.45
2022-11-30T11:37:51.562Z,77.24
2022-11-30T11:38:52.182Z,75.96
2022-11-30T11:39:51.448Z,72.27
2022-11-30T11:40:51.498Z,73.03
2022-11-30T11:41:51.450Z,76.92
2022-11-30T11:42:52.271Z,74.64
2022-11-30T11:43:51.426Z,77.18
2022-11-30T11:44:51.403Z,76.02
2022-11-30T11:45:51.388Z,75.46
2022-11-30T11:46:53.190Z,75.69
2022-11-30T11:47:51.387Z,74.74
2022-11-30T11:48:51.396Z,74.76
2022-11-30T11:49:53.627Z,75.40
2022-11-30T11:51:06.015Z,76.23
2022-11-30T11:51:53.271Z,77.65
2022-11-30T11:52:52.312Z,75.84
2022-11-30T11:53:53.563Z,77.27
2022-11-30T11:54:52.254Z,75.11
2022-11-30T11:55:51.321Z,74.72
2022-11-30T11:56:51.236Z,75.64
2022-11-30T11:57:51.252Z,77.08
2022-11-30T11:58:51.201Z,75.86
2022-11-30T11:59:51.212Z,74.50
2022-11-30T12:00:51.231Z,75.56
2022-11-30T12:01:51.175Z,74.68
2022-11-30T12:02:51.244Z,76.47
2022-11-30T12:03:52.179Z,75.72
2022-11-30T12:04:51.137Z,72.25
2022-11-30T12:05:51.147Z,76.59
2022-11-30T12:06:51.145Z,76.42
2022-11-30T12:07:51.225Z,74.53
2022-11-30T12:08:51.309Z,75.20
2022-11-30T12:09:51.096Z,78.13
2022-11-30T12:10:52.986Z,76.14
2022-11-30T12:11:52.072Z,76.07
2022-11-30T12:12:54.759Z,75.62
2022-11-30T12:13:52.120Z,75.17
2022-11-30T12:14:51.153Z,74.84
2022-11-30T12:15:51.100Z,76.66
2022-11-30T12:16:51.756Z,77.49
2022-11-30T12:17:53.753Z,75.81
2022-11-30T12:18:51.079Z,76.87
2022-11-30T12:19:51.021Z,75.74
2022-11-30T12:20:50.956Z,76.78
2022-11-30T12:21:51.791Z,74.51
2022-11-30T12:22:51.045Z,75.56
2022-11-30T12:23:51.013Z,76.93
2022-11-30T12:24:50.966Z,76.61
2022-11-30T12:25:51.660Z,75.62
2022-11-30T12:26:50.929Z,74.18
2022-11-30T12:27:54.020Z,77.70
2022-11-30T12:28:51.928Z,77.89
2022-11-30T12:29:50.896Z,76.02
2022-11-30T12:30:50.943Z,76.72
2022-11-30T12:31:50.864Z,75.84
2022-11-30T12:32:51.797Z,76.69
2022-11-30T12:33:50.845Z,75.41
2022-11-30T12:34:50.875Z,76.20
2022-11-30T12:35:50.813Z,72.47
2022-11-30T12:36:50.802Z,75.64
2022-11-30T12:37:50.790Z,75.08
2022-11-30T12:38:50.796Z,76.48
2022-11-30T12:39:50.827Z,76.28
2022-11-30T12:40:50.785Z,75.91
2022-11-30T12:41:50.774Z,75.40
2022-11-30T12:42:50.794Z,77.21
2022-11-30T12:43:51.758Z,76.87
2022-11-30T12:44:50.842Z,76.59
2022-11-30T12:45:50.700Z,77.65
2022-11-30T12:46:51.282Z,76.49
2022-11-30T12:47:50.710Z,76.63
2022-11-30T12:48:50.719Z,76.67
2022-11-30T12:49:50.682Z,77.53
2022-11-30T12:50:50.680Z,76.30
2022-11-30T12:51:50.677Z,76.62
2022-11-30T12:52:50.628Z,77.19
2022-11-30T12:53:50.613Z,75.34
2022-11-30T12:55:03.906Z,77.32
2022-11-30T12:55:51.266Z,77.01
2022-11-30T12:56:50.592Z,75.04